createdAt,value
2022-10-07T00:00:52.100Z,100741.72
2022-10-07T00:03:21.055Z,100737.44
2022-10-07T00:05:58.943Z,100737.09
2022-10-07T00:08:25.745Z,100718.94
2022-10-07T00:10:52.645Z,100727.75
2022-10-07T00:13:19.534Z,100729.41
2022-10-07T00:15:46.315Z,100728.38
2022-10-07T00:18:13.223Z,100725.44
2022-10-07T00:20:40.786Z,100736.00
2022-10-07T00:23:08.147Z,100732.41
2022-10-07T00:25:38.250Z,100732.16
2022-10-07T00:28:05.843Z,100731.16
2022-10-07T00:30:32.953Z,100723.69
2022-10-07T00:32:59.895Z,100721.19
2022-10-07T00:35:26.819Z,100721.34
2022-10-07T00:37:54.347Z,100728.03
2022-10-07T00:40:21.244Z,100714.13
2022-10-07T00:42:48.052Z,100713.19
2022-10-07T00:45:19.518Z,100715.59
2022-10-07T00:47:49.755Z,100696.91
2022-10-07T00:50:25.935Z,100693.09
2022-10-07T00:52:59.702Z,100703.50
2022-10-07T00:55:29.417Z,100702.69
2022-10-07T00:58:01.558Z,100687.94
2022-10-07T01:00:28.335Z,100693.19
2022-10-07T01:02:55.332Z,100690.34
2022-10-07T01:05:22.218Z,100677.66
2022-10-07T01:07:50.917Z,100686.81
2022-10-07T01:10:21.785Z,100681.75
2022-10-07T01:13:07.063Z,100682.13
2022-10-07T01:15:44.367Z,100671.09
2022-10-07T01:18:21.226Z,100684.13
2022-10-07T01:21:03.574Z,100676.38
2022-10-07T01:23:56.271Z,100678.81
2022-10-07T01:26:54.237Z,100684.09
2022-10-07T01:29:55.991Z,100677.13
2022-10-07T01:32:32.239Z,100672.31
2022-10-07T01:35:01.976Z,100672.53
2022-10-07T01:37:35.178Z,100670.25
2022-10-07T01:40:07.497Z,100676.72
2022-10-07T01:42:34.617Z,100676.91
2022-10-07T01:45:03.156Z,100679.63
2022-10-07T01:47:30.132Z,100683.47
2022-10-07T01:49:56.980Z,100674.34
2022-10-07T01:52:44.676Z,100672.44
2022-10-07T01:55:50.408Z,100675.34
2022-10-07T01:58:27.023Z,100672.81
2022-10-07T02:01:06.455Z,100675.22
2022-10-07T02:03:38.933Z,100667.88
2022-10-07T02:06:06.020Z,100671.34
2022-10-07T02:08:40.513Z,100677.34
2022-10-07T02:11:23.658Z,100662.41
2022-10-07T02:14:12.046Z,100665.41
2022-10-07T02:16:48.350Z,100669.75
2022-10-07T02:19:31.188Z,100672.03
2022-10-07T02:22:02.153Z,100670.38
2022-10-07T02:24:34.925Z,100674.16
2022-10-07T02:27:13.974Z,100669.06
2022-10-07T02:29:47.057Z,100670.66
2022-10-07T02:32:19.986Z,100668.25
2022-10-07T02:34:53.673Z,100675.13
2022-10-07T02:37:25.646Z,100672.56
2022-10-07T02:39:55.491Z,100670.75
2022-10-07T02:42:39.576Z,100669.50
2022-10-07T02:45:26.608Z,100661.09
2022-10-07T02:48:21.484Z,100669.84
2022-10-07T02:50:55.373Z,100675.72
2022-10-07T02:53:29.096Z,100674.91
2022-10-07T02:55:57.730Z,100669.41
2022-10-07T02:58:26.633Z,100671.25
2022-10-07T03:00:59.822Z,100670.25
2022-10-07T03:03:27.777Z,100667.38
2022-10-07T03:06:05.768Z,100672.16
2022-10-07T03:08:35.344Z,100681.84
2022-10-07T03:11:02.514Z,100684.88
2022-10-07T03:13:31.330Z,100685.44
2022-10-07T03:16:04.159Z,100683.03
2022-10-07T03:18:32.383Z,100684.34
2022-10-07T03:21:09.855Z,100683.53
2022-10-07T03:23:38.035Z,100679.19
2022-10-07T03:26:05.184Z,100677.16
2022-10-07T03:28:37.697Z,100672.53
2022-10-07T03:31:11.822Z,100674.22
2022-10-07T03:33:43.962Z,100670.25
2022-10-07T03:36:10.848Z,100675.31
2022-10-07T03:38:40.519Z,100676.34
2022-10-07T03:41:09.248Z,100677.09
2022-10-07T03:43:36.062Z,100684.19
2022-10-07T03:46:05.736Z,100680.81
2022-10-07T03:48:35.433Z,100679.31
2022-10-07T03:51:02.525Z,100679.72
2022-10-07T03:53:31.519Z,100680.94
2022-10-07T03:56:00.804Z,100677.88
2022-10-07T03:58:29.688Z,100674.84
2022-10-07T04:01:16.171Z,100678.66
2022-10-07T04:03:53.771Z,100690.25
2022-10-07T04:06:20.576Z,100679.63
2022-10-07T04:08:52.986Z,100678.56
2022-10-07T04:11:20.167Z,100675.81
2022-10-07T04:13:48.134Z,100682.69
2022-10-07T04:16:17.888Z,100689.81
2022-10-07T04:18:45.427Z,100691.63
2022-10-07T04:21:12.480Z,100688.13
2022-10-07T04:23:41.307Z,100689.09
2022-10-07T04:26:10.638Z,100691.00
2022-10-07T04:28:42.008Z,100693.25
2022-10-07T04:31:12.586Z,100694.72
2022-10-07T04:33:42.564Z,100687.59
2022-10-07T04:36:12.944Z,100687.41
2022-10-07T04:38:54.620Z,100686.53
2022-10-07T04:41:26.318Z,100691.88
2022-10-07T04:43:57.667Z,100693.56
2022-10-07T04:46:28.556Z,100696.22
2022-10-07T04:49:10.685Z,100701.78
2022-10-07T04:51:38.057Z,100701.28
2022-10-07T04:54:05.533Z,100706.38
2022-10-07T04:56:38.898Z,100707.34
2022-10-07T04:59:08.321Z,100696.41
2022-10-07T05:01:37.037Z,100696.63
2022-10-07T05:04:04.269Z,100707.56
2022-10-07T05:06:33.576Z,100701.53
2022-10-07T05:09:00.751Z,100698.50
2022-10-07T05:11:28.543Z,100698.09
2022-10-07T05:14:05.280Z,100702.25
2022-10-07T05:16:33.024Z,100705.22
2022-10-07T05:19:00.149Z,100709.03
2022-10-07T05:21:27.786Z,100706.91
2022-10-07T05:23:54.722Z,100706.53
2022-10-07T05:26:28.048Z,100705.84
2022-10-07T05:28:58.410Z,100714.56
2022-10-07T05:31:31.682Z,100697.31
2022-10-07T05:34:03.069Z,100710.28
2022-10-07T05:36:30.545Z,100700.69
2022-10-07T05:38:59.509Z,100707.69
2022-10-07T05:41:45.659Z,100713.38
2022-10-07T05:44:16.690Z,100713.41
2022-10-07T05:46:44.225Z,100719.03
2022-10-07T05:49:12.696Z,100717.16
2022-10-07T05:51:40.722Z,100723.25
2022-10-07T05:54:08.572Z,100723.25
2022-10-07T05:56:39.810Z,100723.84
2022-10-07T05:59:06.741Z,100728.59
2022-10-07T06:01:34.352Z,100718.56
2022-10-07T06:04:08.205Z,100725.31
2022-10-07T06:06:38.852Z,100700.84
2022-10-07T06:09:27.637Z,100709.78
2022-10-07T06:12:14.377Z,100706.13
2022-10-07T06:14:42.246Z,100709.19
2022-10-07T06:17:09.827Z,100714.22
2022-10-07T06:19:38.301Z,100706.94
2022-10-07T06:22:05.500Z,100710.97
2022-10-07T06:24:35.311Z,100719.25
2022-10-07T06:27:02.891Z,100707.22
2022-10-07T06:29:30.634Z,100708.38
2022-10-07T06:31:58.037Z,100708.09
2022-10-07T06:34:25.926Z,100716.50
2022-10-07T06:36:54.681Z,100713.72
2022-10-07T06:39:21.725Z,100708.91
2022-10-07T06:41:52.451Z,100712.44
2022-10-07T06:44:33.178Z,100708.44
2022-10-07T06:47:01.177Z,100716.88
2022-10-07T06:49:28.012Z,100712.03
2022-10-07T06:51:54.915Z,100713.47
2022-10-07T06:54:22.336Z,100710.31
2022-10-07T06:56:49.418Z,100711.03
2022-10-07T06:59:17.216Z,100713.25
2022-10-07T07:01:54.452Z,100722.16
2022-10-07T07:04:23.144Z,100710.97
2022-10-07T07:06:50.169Z,100720.50
2022-10-07T07:09:17.077Z,100716.78
2022-10-07T07:11:46.196Z,100726.84
2022-10-07T07:14:20.005Z,100723.53
2022-10-07T07:17:00.005Z,100714.56
2022-10-07T07:19:27.515Z,100716.44
2022-10-07T07:21:55.678Z,100719.38
2022-10-07T07:24:24.647Z,100722.66
2022-10-07T07:26:52.379Z,100717.66
2022-10-07T07:29:20.774Z,100717.88
2022-10-07T07:31:52.470Z,100704.06
2022-10-07T07:34:22.100Z,100713.56
2022-10-07T07:36:53.549Z,100708.66
2022-10-07T07:39:24.520Z,100711.22
2022-10-07T07:41:57.889Z,100704.03
2022-10-07T07:44:25.949Z,100712.78
2022-10-07T07:46:56.215Z,100705.03
2022-10-07T07:49:24.621Z,100702.31
2022-10-07T07:51:52.310Z,100711.94
2022-10-07T07:54:27.265Z,100704.88
2022-10-07T07:56:56.216Z,100713.78
2022-10-07T07:59:25.419Z,100690.88
2022-10-07T08:01:55.630Z,100692.38
2022-10-07T08:04:22.909Z,100687.50
2022-10-07T08:06:50.540Z,100690.50
2022-10-07T08:09:17.811Z,100688.78
2022-10-07T08:11:47.075Z,100684.41
2022-10-07T08:14:17.606Z,100682.28
2022-10-07T08:16:47.440Z,100680.56
2022-10-07T08:19:15.406Z,100683.72
2022-10-07T08:21:42.617Z,100662.94
2022-10-07T08:24:14.889Z,100675.91
2022-10-07T08:26:41.783Z,100663.31
2022-10-07T08:29:13.358Z,100663.13
2022-10-07T08:31:42.516Z,100661.63
2022-10-07T08:34:10.979Z,100673.13
2022-10-07T08:36:38.276Z,100655.56
2022-10-07T08:39:05.703Z,100657.25
2022-10-07T08:41:45.875Z,100662.75
2022-10-07T08:44:18.487Z,100668.19
2022-10-07T08:47:01.030Z,100659.34
2022-10-07T08:49:36.663Z,100662.97
2022-10-07T08:52:21.053Z,100665.72
2022-10-07T08:54:47.996Z,100658.66
2022-10-07T08:57:31.463Z,100654.94
2022-10-07T09:00:05.734Z,100665.78
2022-10-07T09:02:58.958Z,100658.22
2022-10-07T09:05:29.850Z,100659.34
2022-10-07T09:08:01.452Z,100655.06
2022-10-07T09:10:49.687Z,100645.72
2022-10-07T09:13:21.403Z,100636.47
2022-10-07T09:16:26.619Z,100633.41
2022-10-07T09:18:56.993Z,100630.81
2022-10-07T09:21:41.810Z,100627.59
2022-10-07T09:24:23.249Z,100628.03
2022-10-07T09:26:55.327Z,100626.53
2022-10-07T09:29:28.937Z,100619.06
2022-10-07T09:31:58.248Z,100619.63
2022-10-07T09:34:28.015Z,100618.06
2022-10-07T09:37:19.291Z,100622.53
2022-10-07T09:39:49.576Z,100603.53
2022-10-07T09:42:40.038Z,100611.78
2022-10-07T09:45:26.236Z,100603.03
2022-10-07T09:48:17.731Z,100609.47
2022-10-07T09:50:46.776Z,100599.09
2022-10-07T09:53:29.032Z,100606.38
2022-10-07T09:55:55.971Z,100601.03
2022-10-07T09:58:31.213Z,100607.44
2022-10-07T10:01:02.133Z,100596.44
2022-10-07T10:03:35.298Z,100591.75
2022-10-07T10:06:04.990Z,100587.84
2022-10-07T10:08:35.437Z,100593.50
2022-10-07T10:11:20.981Z,100587.28
2022-10-07T10:13:50.112Z,100581.84
2022-10-07T10:16:28.970Z,100575.91
2022-10-07T10:19:02.253Z,100572.66
2022-10-07T10:21:30.706Z,100566.25
2022-10-07T10:24:06.112Z,100559.03
2022-10-07T10:26:48.509Z,100559.00
2022-10-07T10:29:38.924Z,100549.06
2022-10-07T10:32:17.003Z,100538.47
2022-10-07T10:35:09.905Z,100545.75
2022-10-07T10:38:11.050Z,100548.25
2022-10-07T10:40:47.853Z,100531.50
2022-10-07T10:43:16.516Z,100527.16
2022-10-07T10:46:07.987Z,100524.19
2022-10-07T10:48:53.211Z,100519.41
2022-10-07T10:51:38.229Z,100515.25
2022-10-07T10:54:38.888Z,100515.91
2022-10-07T10:57:29.331Z,100500.66
2022-10-07T11:00:13.303Z,100500.81
2022-10-07T11:02:40.897Z,100488.88
2022-10-07T11:05:17.512Z,100494.63
2022-10-07T11:07:51.093Z,100498.97
2022-10-07T11:10:30.176Z,100496.25
2022-10-07T11:13:35.702Z,100484.53
2022-10-07T11:16:11.863Z,100475.66
2022-10-07T11:18:47.065Z,100485.06
2022-10-07T11:21:20.954Z,100486.13
2022-10-07T11:24:16.890Z,100481.50
2022-10-07T11:26:53.866Z,100472.28
2022-10-07T11:29:33.961Z,100473.56
2022-10-07T11:32:48.086Z,100470.03
2022-10-07T11:35:34.677Z,100465.94
2022-10-07T11:38:10.578Z,100459.41
2022-10-07T11:40:49.144Z,100465.47
2022-10-07T11:43:58.351Z,100462.78
2022-10-07T11:46:40.754Z,100449.81
2022-10-07T11:49:20.990Z,100448.19
2022-10-07T11:51:57.887Z,100441.47
2022-10-07T11:54:29.489Z,100440.66
2022-10-07T11:56:58.489Z,100442.13
2022-10-07T12:00:08.184Z,100445.69
2022-10-07T12:02:46.246Z,100435.41
2022-10-07T12:05:34.758Z,100435.88
2022-10-07T12:08:23.893Z,100432.03
2022-10-07T12:10:55.933Z,100423.28
2022-10-07T12:13:22.719Z,100432.47
2022-10-07T12:15:50.945Z,100419.72
2022-10-07T12:18:27.714Z,100399.06
2022-10-07T12:20:58.650Z,100421.41
2022-10-07T12:23:32.316Z,100423.69
2022-10-07T12:26:26.118Z,100414.53
2022-10-07T12:28:53.713Z,100416.56
2022-10-07T12:31:23.686Z,100412.47
2022-10-07T12:33:58.082Z,100412.66
2022-10-07T12:36:31.252Z,100412.09
2022-10-07T12:39:01.557Z,100416.44
2022-10-07T12:41:39.726Z,100415.19
2022-10-07T12:44:22.887Z,100411.19
2022-10-07T12:46:50.982Z,100399.06
2022-10-07T12:49:23.677Z,100401.66
2022-10-07T12:51:53.953Z,100408.00
2022-10-07T12:54:51.660Z,100401.72
2022-10-07T12:57:23.996Z,100401.66
2022-10-07T13:00:01.602Z,100399.94
2022-10-07T13:02:50.285Z,100393.56
2022-10-07T13:05:32.210Z,100389.84
2022-10-07T13:08:17.325Z,100394.44
2022-10-07T13:10:55.331Z,100384.88
2022-10-07T13:13:29.573Z,100393.00
2022-10-07T13:16:02.460Z,100388.41
2022-10-07T13:18:45.192Z,100383.41
2022-10-07T13:21:27.519Z,100391.91
2022-10-07T13:23:56.142Z,100385.66
2022-10-07T13:26:26.003Z,100383.19
2022-10-07T13:28:58.656Z,100380.06
2022-10-07T13:31:31.106Z,100375.66
2022-10-07T13:33:59.974Z,100375.84
2022-10-07T13:36:33.079Z,100380.84
2022-10-07T13:39:23.226Z,100377.31
2022-10-07T13:41:55.572Z,100366.03
2022-10-07T13:44:25.990Z,100369.19
2022-10-07T13:47:00.236Z,100375.47
2022-10-07T13:49:41.103Z,100371.94
2022-10-07T13:52:35.501Z,100372.31
2022-10-07T13:55:02.570Z,100368.94
2022-10-07T13:57:31.381Z,100354.63
2022-10-07T14:00:00.037Z,100370.06
2022-10-07T14:02:27.955Z,100361.78
2022-10-07T14:05:18.921Z,100359.31
2022-10-07T14:07:45.751Z,100355.25
2022-10-07T14:10:13.699Z,100355.31
2022-10-07T14:12:50.061Z,100354.97
2022-10-07T14:15:26.359Z,100350.44
2022-10-07T14:17:55.310Z,100360.91
2022-10-07T14:20:33.284Z,100343.19
2022-10-07T14:23:06.111Z,100365.84
2022-10-07T14:25:49.229Z,100350.13
2022-10-07T14:28:25.123Z,100356.47
2022-10-07T14:31:26.031Z,100353.31
2022-10-07T14:34:35.618Z,100356.16
2022-10-07T14:37:13.389Z,100359.75
2022-10-07T14:39:42.594Z,100360.41
2022-10-07T14:42:16.797Z,100366.06
2022-10-07T14:44:44.565Z,100336.88
2022-10-07T14:47:21.017Z,100368.84
2022-10-07T14:49:48.510Z,100366.03
2022-10-07T14:52:30.027Z,100361.03
2022-10-07T14:55:03.297Z,100360.88
2022-10-07T14:57:30.268Z,100365.13
2022-10-07T14:59:57.104Z,100363.56
2022-10-07T15:02:24.044Z,100360.03
2022-10-07T15:04:50.923Z,100366.00
2022-10-07T15:07:17.909Z,100368.50
2022-10-07T15:09:45.744Z,100377.13
2022-10-07T15:12:14.926Z,100374.59
2022-10-07T15:14:42.203Z,100385.38
2022-10-07T15:17:12.281Z,100392.09
2022-10-07T15:19:39.281Z,100389.16
2022-10-07T15:22:06.231Z,100389.22
2022-10-07T15:24:34.247Z,100395.50
2022-10-07T15:27:01.591Z,100390.81
2022-10-07T15:29:28.471Z,100401.81
2022-10-07T15:31:55.362Z,100396.47
2022-10-07T15:34:22.818Z,100391.34
2022-10-07T15:36:50.363Z,100388.16
2022-10-07T15:39:17.315Z,100403.22
2022-10-07T15:41:44.362Z,100398.94
2022-10-07T15:44:16.233Z,100404.22
2022-10-07T15:46:46.007Z,100404.25
2022-10-07T15:49:12.995Z,100408.31
2022-10-07T15:51:40.188Z,100412.38
2022-10-07T15:54:07.277Z,100402.31
2022-10-07T15:56:34.498Z,100417.78
2022-10-07T15:59:02.211Z,100411.22
2022-10-07T16:01:32.024Z,100424.19
2022-10-07T16:04:00.738Z,100418.59
2022-10-07T16:06:32.419Z,100425.84
2022-10-07T16:09:00.203Z,100422.66
2022-10-07T16:11:28.751Z,100434.66
2022-10-07T16:13:55.687Z,100431.81
2022-10-07T16:16:25.006Z,100430.13
2022-10-07T16:18:53.944Z,100433.81
2022-10-07T16:21:30.019Z,100433.00
2022-10-07T16:23:59.193Z,100438.03
2022-10-07T16:26:30.108Z,100441.56
2022-10-07T16:29:19.455Z,100435.16
2022-10-07T16:31:47.677Z,100449.13
2022-10-07T16:34:16.547Z,100441.75
2022-10-07T16:36:46.229Z,100447.09
2022-10-07T16:39:13.538Z,100449.66
2022-10-07T16:41:44.196Z,100457.72
2022-10-07T16:44:11.387Z,100446.81
2022-10-07T16:46:38.866Z,100458.69
2022-10-07T16:49:07.745Z,100457.91
2022-10-07T16:51:36.785Z,100461.75
2022-10-07T16:54:07.392Z,100468.47
2022-10-07T16:56:36.097Z,100466.78
2022-10-07T16:59:05.639Z,100461.91
2022-10-07T17:01:33.375Z,100462.38
2022-10-07T17:04:01.379Z,100459.22
2022-10-07T17:06:30.265Z,100461.06
2022-10-07T17:09:04.326Z,100466.78
2022-10-07T17:11:36.157Z,100461.88
2022-10-07T17:14:04.970Z,100469.56
2022-10-07T17:16:37.936Z,100467.22
2022-10-07T17:19:06.472Z,100465.94
2022-10-07T17:21:38.070Z,100460.25
2022-10-07T17:24:05.165Z,100470.25
2022-10-07T17:26:32.221Z,100466.06
2022-10-07T17:29:06.651Z,100471.31
2022-10-07T17:31:35.854Z,100477.19
2022-10-07T17:34:05.512Z,100480.00
2022-10-07T17:36:33.032Z,100471.94
2022-10-07T17:38:59.959Z,100480.19
2022-10-07T17:41:38.207Z,100478.41
2022-10-07T17:44:10.409Z,100472.25
2022-10-07T17:46:39.396Z,100446.84
2022-10-07T17:49:08.760Z,100472.72
2022-10-07T17:51:37.355Z,100470.88
2022-10-07T17:54:06.135Z,100478.75
2022-10-07T17:56:34.720Z,100474.56
2022-10-07T17:59:02.763Z,100468.06
2022-10-07T18:01:32.951Z,100476.13
2022-10-07T18:04:26.160Z,100476.91
2022-10-07T18:06:53.132Z,100480.03
2022-10-07T18:09:22.155Z,100481.63
2022-10-07T18:12:07.749Z,100489.41
2022-10-07T18:14:54.372Z,100487.47
2022-10-07T18:17:21.902Z,100486.72
2022-10-07T18:19:48.744Z,100484.34
2022-10-07T18:22:15.576Z,100489.38
2022-10-07T18:24:42.577Z,100484.25
2022-10-07T18:27:09.457Z,100489.69
2022-10-07T18:29:38.198Z,100488.53
2022-10-07T18:32:08.396Z,100487.09
2022-10-07T18:34:35.539Z,100488.09
2022-10-07T18:37:02.709Z,100490.16
2022-10-07T18:39:29.896Z,100492.84
2022-10-07T18:41:58.021Z,100489.00
2022-10-07T18:44:25.725Z,100485.84
2022-10-07T18:46:53.334Z,100482.38
2022-10-07T18:49:20.233Z,100486.16
2022-10-07T18:51:47.404Z,100488.53
2022-10-07T18:54:14.302Z,100494.47
2022-10-07T18:56:41.764Z,100496.38
2022-10-07T18:59:10.326Z,100485.59
2022-10-07T19:01:37.843Z,100491.63
2022-10-07T19:04:06.732Z,100488.06
2022-10-07T19:06:36.515Z,100494.56
2022-10-07T19:09:09.063Z,100501.59
2022-10-07T19:11:36.257Z,100489.53
2022-10-07T19:14:03.462Z,100489.81
2022-10-07T19:16:35.688Z,100504.75
2022-10-07T19:19:08.813Z,100496.88
2022-10-07T19:21:36.144Z,100491.78
2022-10-07T19:24:04.493Z,100504.00
2022-10-07T19:26:37.580Z,100503.31
2022-10-07T19:29:06.462Z,100504.03
2022-10-07T19:31:40.427Z,100499.69
2022-10-07T19:34:10.328Z,100495.56
2022-10-07T19:36:40.231Z,100500.78
2022-10-07T19:39:08.149Z,100486.31
2022-10-07T19:41:36.105Z,100495.31
2022-10-07T19:44:04.534Z,100492.06
2022-10-07T19:46:33.500Z,100485.88
2022-10-07T19:49:02.553Z,100488.00
2022-10-07T19:51:31.437Z,100484.34
2022-10-07T19:54:00.084Z,100482.09
2022-10-07T19:56:31.763Z,100470.13
2022-10-07T19:59:01.110Z,100480.97
2022-10-07T20:01:32.320Z,100471.38
2022-10-07T20:04:13.959Z,100485.34
2022-10-07T20:06:41.681Z,100477.03
2022-10-07T20:09:11.570Z,100466.47
2022-10-07T20:11:38.421Z,100469.97
2022-10-07T20:14:06.729Z,100471.53
2022-10-07T20:16:34.702Z,100476.72
2022-10-07T20:19:05.739Z,100472.97
2022-10-07T20:21:35.627Z,100474.69
2022-10-07T20:24:03.017Z,100469.44
2022-10-07T20:26:35.294Z,100475.66
2022-10-07T20:29:04.446Z,100471.19
2022-10-07T20:31:35.098Z,100470.31
2022-10-07T20:34:02.732Z,100465.50
2022-10-07T20:36:32.099Z,100464.91
2022-10-07T20:39:19.069Z,100450.56
2022-10-07T20:42:08.335Z,100458.88
2022-10-07T20:44:36.749Z,100458.97
2022-10-07T20:47:08.625Z,100465.66
2022-10-07T20:49:37.505Z,100464.69
2022-10-07T20:52:07.228Z,100460.66
2022-10-07T20:54:34.275Z,100461.06
2022-10-07T20:57:01.127Z,100442.72
2022-10-07T20:59:30.372Z,100449.06
2022-10-07T21:01:58.347Z,100452.00
2022-10-07T21:04:27.211Z,100451.38
2022-10-07T21:06:57.744Z,100440.59
2022-10-07T21:09:26.185Z,100433.69
2022-10-07T21:11:54.342Z,100431.03
2022-10-07T21:14:21.341Z,100431.47
2022-10-07T21:16:48.670Z,100431.47
2022-10-07T21:19:17.179Z,100433.00
2022-10-07T21:21:44.127Z,100431.22
2022-10-07T21:24:11.008Z,100422.31
2022-10-07T21:26:38.234Z,100422.75
2022-10-07T21:29:08.183Z,100427.31
2022-10-07T21:31:35.853Z,100426.72
2022-10-07T21:34:10.399Z,100425.69
2022-10-07T21:36:49.158Z,100416.03
2022-10-07T21:39:17.472Z,100426.22
2022-10-07T21:41:44.298Z,100426.47
2022-10-07T21:44:13.052Z,100416.25
2022-10-07T21:46:42.770Z,100420.50
2022-10-07T21:49:09.995Z,100415.28
2022-10-07T21:51:37.018Z,100404.25
2022-10-07T21:54:04.817Z,100410.34
2022-10-07T21:56:33.406Z,100392.19
2022-10-07T21:59:01.503Z,100401.72
2022-10-07T22:01:28.766Z,100390.78
2022-10-07T22:03:57.739Z,100396.19
2022-10-07T22:06:45.575Z,100397.38
2022-10-07T22:09:14.007Z,100379.81
2022-10-07T22:11:41.079Z,100388.59
2022-10-07T22:14:12.295Z,100399.78
2022-10-07T22:16:40.672Z,100395.91
2022-10-07T22:19:07.944Z,100392.81
2022-10-07T22:21:39.273Z,100392.16
2022-10-07T22:24:07.670Z,100380.19
2022-10-07T22:26:45.488Z,100390.81
2022-10-07T22:29:14.728Z,100390.28
2022-10-07T22:31:41.959Z,100385.34
2022-10-07T22:34:08.793Z,100395.75
2022-10-07T22:36:36.960Z,100390.66
2022-10-07T22:39:04.066Z,100390.50
2022-10-07T22:41:31.035Z,100373.84
2022-10-07T22:43:59.168Z,100377.50
2022-10-07T22:46:28.310Z,100386.81
2022-10-07T22:48:57.556Z,100371.66
2022-10-07T22:51:27.023Z,100379.53
2022-10-07T22:53:55.378Z,100384.13
2022-10-07T22:56:23.885Z,100378.09
2022-10-07T22:58:53.769Z,100372.34
2022-10-07T23:01:21.973Z,100368.50
2022-10-07T23:03:48.924Z,100371.16
2022-10-07T23:06:18.651Z,100365.22
2022-10-07T23:08:47.014Z,100380.09
2022-10-07T23:11:17.066Z,100382.13
2022-10-07T23:13:44.048Z,100376.13
2022-10-07T23:16:13.040Z,100369.09
2022-10-07T23:18:42.715Z,100362.09
2022-10-07T23:21:14.108Z,100358.22
2022-10-07T23:23:43.211Z,100359.91
2022-10-07T23:26:11.979Z,100362.22
2022-10-07T23:28:39.411Z,100363.19
2022-10-07T23:31:08.457Z,100367.03
2022-10-07T23:33:36.628Z,100355.69
2022-10-07T23:36:05.859Z,100352.31
2022-10-07T23:38:33.606Z,100353.03
2022-10-07T23:41:01.228Z,100350.97
2022-10-07T23:43:31.827Z,100349.13
2022-10-07T23:46:02.037Z,100343.19
2022-10-07T23:48:29.098Z,100321.72
2022-10-07T23:50:56.015Z,100338.94
2022-10-07T23:53:23.347Z,100322.78
2022-10-07T23:55:53.062Z,100324.59
2022-10-07T23:58:21.974Z,100327.16
